KFMY/FMY METAR and TAF weather

Enter ICAO airport designator
Station Type Date Time Source
KFMY METAR 2020/09/19 21:53 UTC NOAA

KFMY 192153Z 32009KT 10SM CLR 32/23 A2986 RMK AO2 SLP112 T03170233


Station Type Date Time Source
KFMY Decoded METAR 2020/09/19 21:53 UTC NOAA

FORT MYERS PAGE FIELD, FL, United States (KFMY) 26-35N 081-52W 4M
Sep 19, 2020 - 05:53 PM EDT / 2020.09.19 2153 UTC
Wind: from the NW (320 degrees) at 10 MPH (9 KT):0
Visibility: 10 mile(s):0
Sky conditions: clear
Temperature: 89.1 F (31.7 C)
Heat index: 98.1 F (36.7 C):1
Dew Point: 73.9 F (23.3 C)
Relative Humidity: 61%
Pressure (altimeter): 29.86 in. Hg (1011 hPa)
ob: KFMY 192153Z 32009KT 10SM CLR 32/23 A2986 RMK AO2 SLP112 T03170233
cycle: 22

Station Type Date Time Source
KFMY TAF 2020/09/19 18:45 UTC NOAA

TAF KFMY 191743Z 1918/2018 28006KT P6SM SCT035 BKN250
FM192000 30010KT P6SM VCTS SCT040CB BKN250
FM200100 36006KT P6SM SCT030 BKN250
FM200800 04005KT P6SM BKN025 BKN050
FM201400 05011KT P6SM BKN025 BKN060

Example: see airport list